createdAt,value
2018-05-11T00:00:28.050Z,3.63
2018-05-11T00:02:55.618Z,4.07
2018-05-11T00:05:23.198Z,3.40
2018-05-11T00:07:50.762Z,3.30
2018-05-11T00:10:18.347Z,3.67
2018-05-11T00:12:46.702Z,3.07
2018-05-11T00:15:14.263Z,3.20
2018-05-11T00:17:41.847Z,2.90
2018-05-11T00:20:10.170Z,3.50
2018-05-11T00:22:37.755Z,3.40
2018-05-11T00:25:05.314Z,3.50
2018-05-11T00:27:32.922Z,3.07
2018-05-11T00:30:00.510Z,3.27
2018-05-11T00:32:28.074Z,3.17
2018-05-11T00:34:55.654Z,3.23
2018-05-11T00:37:23.242Z,2.97
2018-05-11T00:39:51.619Z,3.03
2018-05-11T00:42:19.942Z,3.47
2018-05-11T00:44:47.527Z,3.43
2018-05-11T00:47:15.120Z,3.33
2018-05-11T00:49:43.495Z,3.20
2018-05-11T00:52:11.822Z,3.27
2018-05-11T00:54:39.402Z,3.20
2018-05-11T00:57:07.043Z,3.10
2018-05-11T00:59:34.603Z,2.80
2018-05-11T01:02:02.212Z,2.70
2018-05-11T01:04:30.539Z,2.73
2018-05-11T01:06:58.114Z,3.23
2018-05-11T01:09:25.726Z,3.53
2018-05-11T01:11:54.079Z,3.53
2018-05-11T01:14:21.666Z,3.20
2018-05-11T01:16:50.173Z,2.60
2018-05-11T01:19:17.662Z,2.80
2018-05-11T01:21:45.218Z,3.10
2018-05-11T01:24:12.829Z,2.93
2018-05-11T01:26:41.178Z,2.90
2018-05-11T01:29:08.786Z,3.10
2018-05-11T01:31:36.374Z,2.90
2018-05-11T01:34:03.998Z,3.03
2018-05-11T01:36:32.350Z,2.60
2018-05-11T01:38:59.942Z,3.57
2018-05-11T01:41:27.545Z,3.40
2018-05-11T01:43:55.142Z,3.07
2018-05-11T01:46:23.494Z,3.40
2018-05-11T01:48:51.081Z,3.30
2018-05-11T01:51:19.466Z,2.87
2018-05-11T01:53:47.815Z,3.17
2018-05-11T01:56:15.422Z,2.90
2018-05-11T01:58:43.015Z,3.17
2018-05-11T02:01:11.362Z,3.47
2018-05-11T02:03:38.958Z,3.23
2018-05-11T02:06:06.543Z,3.70
2018-05-11T02:08:34.122Z,3.70
2018-05-11T02:11:01.771Z,3.30
2018-05-11T02:13:29.359Z,3.10
2018-05-11T02:15:56.943Z,3.47
2018-05-11T02:18:25.302Z,3.07
2018-05-11T02:20:52.887Z,3.23
2018-05-11T02:23:21.234Z,3.70
2018-05-11T02:25:48.863Z,3.70
2018-05-11T02:28:16.434Z,3.60
2018-05-11T02:30:44.042Z,3.43
2018-05-11T02:33:12.418Z,3.60
2018-05-11T02:35:39.979Z,3.40
2018-05-11T02:38:07.614Z,3.80
2018-05-11T02:40:35.207Z,3.80
2018-05-11T02:43:03.559Z,3.23
2018-05-11T02:45:31.142Z,3.37
2018-05-11T02:47:58.728Z,3.33
2018-05-11T02:50:26.341Z,4.07
2018-05-11T02:52:53.903Z,3.37
2018-05-11T02:55:22.309Z,3.80
2018-05-11T02:57:50.665Z,3.30
2018-05-11T03:00:18.291Z,3.10
2018-05-11T03:02:45.874Z,3.23
2018-05-11T03:05:13.535Z,3.73
2018-05-11T03:07:41.086Z,3.90
2018-05-11T03:10:08.670Z,3.50
2018-05-11T03:12:36.259Z,3.50
2018-05-11T03:15:04.659Z,3.40
2018-05-11T03:17:32.986Z,3.70
2018-05-11T03:20:00.559Z,3.33
2018-05-11T03:22:28.142Z,3.70
2018-05-11T03:24:55.702Z,3.33
2018-05-11T03:27:23.289Z,3.57
2018-05-11T03:29:50.871Z,3.90
2018-05-11T03:32:18.455Z,3.23
2018-05-11T03:34:46.039Z,3.37
2018-05-11T03:37:13.622Z,4.13
2018-05-11T03:39:41.214Z,3.80
2018-05-11T03:42:08.802Z,3.50
2018-05-11T03:44:36.362Z,4.33
2018-05-11T03:47:03.998Z,4.23
2018-05-11T03:49:31.588Z,3.83
2018-05-11T03:51:59.178Z,3.80
2018-05-11T03:54:27.560Z,4.20
2018-05-11T03:56:55.937Z,3.80
2018-05-11T03:59:23.682Z,3.80
2018-05-11T04:02:03.016Z,3.60
2018-05-11T04:04:42.562Z,4.30
2018-05-11T04:07:22.010Z,3.50
2018-05-11T04:09:49.630Z,4.00
2018-05-11T04:12:17.187Z,3.70
2018-05-11T04:14:45.626Z,3.57
2018-05-11T04:17:13.219Z,3.70
2018-05-11T04:19:40.782Z,4.33
2018-05-11T04:22:09.126Z,3.50
2018-05-11T04:24:36.691Z,4.03
2018-05-11T04:27:04.302Z,4.77
2018-05-11T04:29:31.858Z,5.60
2018-05-11T04:31:59.439Z,5.57
2018-05-11T04:34:27.041Z,5.13
2018-05-11T04:36:54.629Z,5.80
2018-05-11T04:39:22.189Z,5.67
2018-05-11T04:41:49.836Z,4.40
2018-05-11T04:44:18.185Z,4.83
2018-05-11T04:46:45.777Z,4.90
2018-05-11T04:49:14.142Z,4.40
2018-05-11T04:51:41.703Z,4.77
2018-05-11T04:54:09.291Z,5.37
2018-05-11T04:56:36.894Z,4.83
2018-05-11T04:59:04.471Z,4.80
2018-05-11T05:01:32.050Z,4.67
2018-05-11T05:03:59.607Z,5.30
2018-05-11T05:06:27.187Z,4.40
2018-05-11T05:08:55.505Z,4.40
2018-05-11T05:11:23.131Z,4.60
2018-05-11T05:13:50.689Z,4.50
2018-05-11T05:16:19.054Z,4.47
2018-05-11T05:18:47.407Z,4.60
2018-05-11T05:21:14.968Z,5.33
2018-05-11T05:23:42.558Z,4.93
2018-05-11T05:26:10.190Z,4.63
2018-05-11T05:28:37.782Z,4.70
2018-05-11T05:31:05.339Z,5.07
2018-05-11T05:33:32.950Z,4.50
2018-05-11T05:36:00.510Z,4.67
2018-05-11T05:38:28.855Z,5.00
2018-05-11T05:40:56.438Z,4.90
2018-05-11T05:43:24.822Z,5.17
2018-05-11T05:45:53.199Z,4.50
2018-05-11T05:48:20.781Z,5.27
2018-05-11T05:50:48.367Z,5.70
2018-05-11T05:53:15.959Z,5.53
2018-05-11T05:55:43.577Z,5.50
2018-05-11T05:58:11.167Z,4.73
2018-05-11T06:00:38.755Z,5.47
2018-05-11T06:03:06.351Z,5.67
2018-05-11T06:05:34.702Z,5.87
2018-05-11T06:08:02.298Z,5.65
2018-05-11T06:10:29.855Z,6.10
2018-05-11T06:12:58.239Z,6.00
2018-05-11T06:15:25.799Z,5.50
2018-05-11T06:17:53.418Z,5.87
2018-05-11T06:20:21.742Z,6.03
2018-05-11T06:22:49.330Z,6.93
2018-05-11T06:25:16.920Z,6.73
2018-05-11T06:27:44.531Z,8.90
2018-05-11T06:30:12.107Z,8.63
2018-05-11T06:32:39.734Z,8.73
2018-05-11T06:35:07.327Z,8.23
2018-05-11T06:37:34.890Z,8.07
2018-05-11T06:40:02.503Z,8.80
2018-05-11T06:42:30.855Z,8.90
2018-05-11T06:44:58.467Z,9.73
2018-05-11T06:47:26.090Z,11.03
2018-05-11T06:49:53.710Z,10.97
2018-05-11T06:52:21.403Z,11.93
2018-05-11T06:54:49.024Z,11.70
2018-05-11T06:57:16.596Z,13.10
2018-05-11T06:59:44.186Z,11.70
2018-05-11T07:02:11.782Z,14.00
2018-05-11T07:04:40.150Z,15.00
2018-05-11T07:07:07.714Z,17.30
2018-05-11T07:09:36.047Z,16.73
2018-05-11T07:12:03.640Z,14.43
2018-05-11T07:14:31.209Z,16.37
2018-05-11T07:16:58.799Z,16.57
2018-05-11T07:19:26.464Z,18.03
2018-05-11T07:21:54.018Z,15.97
2018-05-11T07:24:21.578Z,18.30
2018-05-11T07:26:49.207Z,17.00
2018-05-11T07:29:16.801Z,16.70
2018-05-11T07:31:44.365Z,16.70
2018-05-11T07:34:11.955Z,17.70
2018-05-11T07:36:39.547Z,18.83
2018-05-11T07:39:07.133Z,15.80
2018-05-11T07:41:35.515Z,18.37
2018-05-11T07:44:03.850Z,16.90
2018-05-11T07:46:31.453Z,17.37
2018-05-11T07:48:59.837Z,18.80
2018-05-11T07:51:28.221Z,16.87
2018-05-11T07:53:55.791Z,19.23
2018-05-11T07:56:23.402Z,17.73
2018-05-11T07:58:51.023Z,18.17
2018-05-11T08:01:18.646Z,17.97
2018-05-11T08:03:47.009Z,18.07
2018-05-11T08:06:14.584Z,18.43
2018-05-11T08:08:42.959Z,17.57
2018-05-11T08:11:10.564Z,17.47
2018-05-11T08:13:38.135Z,19.20
2018-05-11T08:16:05.707Z,18.10
2018-05-11T08:18:33.298Z,18.80
2018-05-11T08:21:00.924Z,18.80
2018-05-11T08:23:28.570Z,18.90
2018-05-11T08:25:56.211Z,17.03
2018-05-11T08:28:24.565Z,18.37
2018-05-11T08:30:52.168Z,18.93
2018-05-11T08:33:19.807Z,15.80
2018-05-11T08:35:48.375Z,17.23
2018-05-11T08:38:15.858Z,16.73
2018-05-11T08:40:44.186Z,17.50
2018-05-11T08:43:11.776Z,15.90
2018-05-11T08:45:39.394Z,16.70
2018-05-11T08:48:06.992Z,15.53
2018-05-11T08:50:34.590Z,15.20
2018-05-11T08:53:02.158Z,15.40
2018-05-11T08:55:29.755Z,14.27
2018-05-11T08:57:57.371Z,14.33
2018-05-11T09:00:24.962Z,14.73
2018-05-11T09:02:52.626Z,14.20
2018-05-11T09:05:20.171Z,14.70
2018-05-11T09:07:47.758Z,14.80
2018-05-11T09:10:15.390Z,14.73
2018-05-11T09:12:42.988Z,13.50
2018-05-11T09:15:10.583Z,15.10
2018-05-11T09:17:38.975Z,13.20
2018-05-11T09:20:06.543Z,13.30
2018-05-11T09:22:34.148Z,11.77
2018-05-11T09:25:01.717Z,13.10
2018-05-11T09:27:29.309Z,13.27
2018-05-11T09:29:57.666Z,13.17
2018-05-11T09:32:25.290Z,13.97
2018-05-11T09:34:52.931Z,12.80
2018-05-11T09:37:20.499Z,14.33
2018-05-11T09:39:48.174Z,14.17
2018-05-11T09:42:15.714Z,14.03
2018-05-11T09:44:43.302Z,13.50
2018-05-11T09:47:10.872Z,13.00
2018-05-11T09:49:38.467Z,12.50
2018-05-11T09:52:06.834Z,11.10
2018-05-11T09:54:34.518Z,10.83
2018-05-11T09:57:02.098Z,9.67
2018-05-11T09:59:29.714Z,9.47
2018-05-11T10:01:57.314Z,11.80
2018-05-11T10:04:24.934Z,13.03
2018-05-11T10:06:52.571Z,12.90
2018-05-11T10:09:20.965Z,12.83
2018-05-11T10:11:48.584Z,12.83
2018-05-11T10:14:16.190Z,11.83
2018-05-11T10:16:43.830Z,12.97
2018-05-11T10:19:11.398Z,11.60
2018-05-11T10:21:38.965Z,10.67
2018-05-11T10:24:06.562Z,10.90
2018-05-11T10:26:34.156Z,10.90
2018-05-11T10:29:01.759Z,11.63
2018-05-11T10:31:29.397Z,12.23
2018-05-11T10:33:57.043Z,10.33
2018-05-11T10:36:24.615Z,11.37
2018-05-11T10:38:52.199Z,11.80
2018-05-11T10:41:19.791Z,11.10
2018-05-11T10:43:48.165Z,10.93
2018-05-11T10:46:16.503Z,10.10
2018-05-11T10:48:44.167Z,12.00
2018-05-11T10:51:11.753Z,10.80
2018-05-11T10:53:40.139Z,10.03
2018-05-11T10:56:07.742Z,9.57
2018-05-11T10:58:35.358Z,9.80
2018-05-11T11:01:03.734Z,9.03
2018-05-11T11:03:31.433Z,10.00
2018-05-11T11:05:59.038Z,8.67
2018-05-11T11:08:26.661Z,8.83
2018-05-11T11:10:54.223Z,8.23
2018-05-11T11:13:22.660Z,9.03
2018-05-11T11:15:50.283Z,10.50
2018-05-11T11:18:17.908Z,10.83
2018-05-11T11:20:46.266Z,10.80
2018-05-11T11:23:13.891Z,10.67
2018-05-11T11:25:41.455Z,10.70
2018-05-11T11:28:09.070Z,10.40
2018-05-11T11:30:37.471Z,10.30
2018-05-11T11:33:05.086Z,10.10
2018-05-11T11:35:32.658Z,9.67
2018-05-11T11:38:00.247Z,10.30
2018-05-11T11:40:28.609Z,10.70
2018-05-11T11:42:56.183Z,9.43
2018-05-11T11:45:24.539Z,11.20
2018-05-11T11:47:52.175Z,11.60
2018-05-11T11:50:19.746Z,11.83
2018-05-11T11:52:47.343Z,10.30
2018-05-11T11:55:15.707Z,9.87
2018-05-11T11:57:43.276Z,10.23
2018-05-11T12:00:11.630Z,9.90
2018-05-11T12:02:39.229Z,9.73
2018-05-11T12:05:06.803Z,8.17
2018-05-11T12:07:34.423Z,8.03
2018-05-11T12:10:02.020Z,7.67
2018-05-11T12:12:29.606Z,8.20
2018-05-11T12:14:57.272Z,6.47
2018-05-11T12:17:25.570Z,5.30
2018-05-11T12:19:53.163Z,6.83
2018-05-11T12:22:21.515Z,7.33
2018-05-11T12:24:49.115Z,8.70
2018-05-11T12:27:17.498Z,7.30
2018-05-11T12:29:45.107Z,7.97
2018-05-11T12:32:12.717Z,7.90
2018-05-11T12:34:41.114Z,10.33
2018-05-11T12:37:08.685Z,8.27
2018-05-11T12:39:36.251Z,9.63
2018-05-11T12:42:03.850Z,8.23
2018-05-11T12:44:31.436Z,8.00
2018-05-11T12:46:59.790Z,6.90
2018-05-11T12:49:27.412Z,7.77
2018-05-11T12:51:55.003Z,7.00
2018-05-11T12:54:22.600Z,5.00
2018-05-11T12:56:50.168Z,6.20
2018-05-11T12:59:17.763Z,5.73
2018-05-11T13:01:45.323Z,5.40
2018-05-11T13:04:12.939Z,5.63
2018-05-11T13:06:41.299Z,4.13
2018-05-11T13:09:08.903Z,5.40
2018-05-11T13:11:36.495Z,7.40
2018-05-11T13:14:04.083Z,8.50
2018-05-11T13:16:31.694Z,8.57
2018-05-11T13:18:59.335Z,8.47
2018-05-11T13:21:26.928Z,8.17
2018-05-11T13:23:55.283Z,7.70
2018-05-11T13:26:22.895Z,7.77
2018-05-11T13:28:50.474Z,7.53
2018-05-11T13:31:18.076Z,9.93
2018-05-11T13:33:46.402Z,9.33
2018-05-11T13:36:14.001Z,8.70
2018-05-11T13:38:42.421Z,9.53
2018-05-11T13:41:10.038Z,9.07
2018-05-11T13:43:37.638Z,9.80
2018-05-11T13:46:05.262Z,11.20
2018-05-11T13:48:33.728Z,10.35
2018-05-11T13:51:01.291Z,10.57
2018-05-11T13:53:28.883Z,10.37
2018-05-11T13:55:58.299Z,9.80
2018-05-11T13:58:25.913Z,7.57
2018-05-11T14:00:53.476Z,8.10
2018-05-11T14:03:21.090Z,7.00
2018-05-11T14:05:48.692Z,7.13
2018-05-11T14:08:16.283Z,7.83
2018-05-11T14:10:43.898Z,8.50
2018-05-11T14:13:12.365Z,9.80
2018-05-11T14:15:39.930Z,10.07
2018-05-11T14:18:08.291Z,9.07
2018-05-11T14:20:35.909Z,8.97
2018-05-11T14:23:03.475Z,9.63
2018-05-11T14:25:31.091Z,8.87
2018-05-11T14:27:59.422Z,9.37
2018-05-11T14:30:27.009Z,8.40
2018-05-11T14:32:54.602Z,9.80
2018-05-11T14:35:22.986Z,7.37
2018-05-11T14:37:51.372Z,7.20
2018-05-11T14:40:18.994Z,9.10
2018-05-11T14:42:46.562Z,9.80
2018-05-11T14:45:14.198Z,10.20
2018-05-11T14:47:41.790Z,10.27
2018-05-11T14:50:09.378Z,8.90
2018-05-11T14:52:37.000Z,9.13
2018-05-11T14:55:04.564Z,9.20
2018-05-11T14:57:32.153Z,8.40
2018-05-11T15:00:00.504Z,7.83
2018-05-11T15:02:28.092Z,8.03
2018-05-11T15:04:56.454Z,10.07
2018-05-11T15:07:24.794Z,12.10
2018-05-11T15:09:52.406Z,8.70
2018-05-11T15:12:20.755Z,7.13
2018-05-11T15:14:48.342Z,6.60
2018-05-11T15:17:16.673Z,8.33
2018-05-11T15:19:44.295Z,7.50
2018-05-11T15:22:11.910Z,8.20
2018-05-11T15:24:39.473Z,9.90
2018-05-11T15:27:07.098Z,8.90
2018-05-11T15:29:34.717Z,9.57
2018-05-11T15:32:03.056Z,10.83
2018-05-11T15:34:30.667Z,6.73
2018-05-11T15:36:59.027Z,5.70
2018-05-11T15:39:26.590Z,6.30
2018-05-11T15:41:54.223Z,8.17
2018-05-11T15:44:21.810Z,9.73
2018-05-11T15:46:49.423Z,9.20
2018-05-11T15:49:17.011Z,11.07
2018-05-11T15:51:44.628Z,11.30
2018-05-11T15:54:12.198Z,12.03
2018-05-11T15:56:39.777Z,14.10
2018-05-11T15:59:07.477Z,14.30
2018-05-11T16:01:35.050Z,12.87
2018-05-11T16:04:02.667Z,11.50
2018-05-11T16:06:30.250Z,11.17
2018-05-11T16:08:57.838Z,14.00
2018-05-11T16:11:26.218Z,16.40
2018-05-11T16:13:54.546Z,13.70
2018-05-11T16:16:22.231Z,15.87
2018-05-11T16:18:49.830Z,22.40
2018-05-11T16:21:17.446Z,21.73
2018-05-11T16:23:45.107Z,18.30
2018-05-11T16:26:12.678Z,17.77
2018-05-11T16:28:40.266Z,16.07
2018-05-11T16:31:07.898Z,17.67
2018-05-11T16:33:35.515Z,18.30
2018-05-11T16:36:03.859Z,16.80
2018-05-11T16:38:31.471Z,17.87
2018-05-11T16:40:59.062Z,18.73
2018-05-11T16:43:26.706Z,18.03
2018-05-11T16:45:54.278Z,15.40
2018-05-11T16:48:21.846Z,23.40
2018-05-11T16:50:49.499Z,23.10
2018-05-11T16:53:17.113Z,21.50
2018-05-11T16:55:44.699Z,19.97
2018-05-11T16:58:12.316Z,19.20
2018-05-11T17:00:40.722Z,17.20
2018-05-11T17:03:08.316Z,20.90
2018-05-11T17:05:36.003Z,21.40
2018-05-11T17:08:03.633Z,20.07
2018-05-11T17:10:31.270Z,19.17
2018-05-11T17:12:58.987Z,19.63
2018-05-11T17:15:26.590Z,22.23
2018-05-11T17:17:54.185Z,22.40
2018-05-11T17:20:21.822Z,24.40
2018-05-11T17:22:49.444Z,23.13
2018-05-11T17:25:17.046Z,21.00
2018-05-11T17:27:45.455Z,19.93
2018-05-11T17:30:13.056Z,18.70
2018-05-11T17:32:40.650Z,19.23
2018-05-11T17:35:08.587Z,17.83
2018-05-11T17:37:36.182Z,17.57
2018-05-11T17:40:03.751Z,18.37
2018-05-11T17:42:32.153Z,18.00
2018-05-11T17:44:59.754Z,17.63
2018-05-11T17:47:27.351Z,17.73
2018-05-11T17:49:54.986Z,16.77
2018-05-11T17:52:22.589Z,16.07
2018-05-11T17:54:50.191Z,14.27
2018-05-11T17:57:17.814Z,13.53
2018-05-11T17:59:45.389Z,14.93
2018-05-11T18:02:12.981Z,14.63
2018-05-11T18:04:40.612Z,15.90
2018-05-11T18:07:08.182Z,15.20
2018-05-11T18:09:35.750Z,15.73
2018-05-11T18:12:03.401Z,15.57
2018-05-11T18:14:31.015Z,15.13
2018-05-11T18:16:58.632Z,14.73
2018-05-11T18:19:26.235Z,14.93
2018-05-11T18:21:53.802Z,18.83
2018-05-11T18:24:21.406Z,16.87
2018-05-11T18:26:49.741Z,19.47
2018-05-11T18:29:17.358Z,18.90
2018-05-11T18:31:45.006Z,18.90
2018-05-11T18:34:12.603Z,21.10
2018-05-11T18:36:40.174Z,22.00
2018-05-11T18:39:07.814Z,22.60
2018-05-11T18:41:35.432Z,21.73
2018-05-11T18:44:03.026Z,22.13
2018-05-11T18:46:30.670Z,22.50
2018-05-11T18:48:58.234Z,22.93
2018-05-11T18:51:26.590Z,22.27
2018-05-11T18:53:54.525Z,22.27
2018-05-11T18:56:21.791Z,23.70
2018-05-11T18:58:49.418Z,24.07
2018-05-11T19:01:17.002Z,25.80
2018-05-11T19:03:47.327Z,25.80
2018-05-11T19:06:14.987Z,25.47
2018-05-11T19:08:42.601Z,26.27
2018-05-11T19:11:10.962Z,27.53
2018-05-11T19:13:38.618Z,25.47
2018-05-11T19:16:06.182Z,26.20
2018-05-11T19:18:33.778Z,25.70
2018-05-11T19:21:01.515Z,26.90
2018-05-11T19:23:29.874Z,28.40
2018-05-11T19:25:57.471Z,29.00
2018-05-11T19:28:25.860Z,28.07
2018-05-11T19:30:53.448Z,27.60
2018-05-11T19:33:21.011Z,29.57
2018-05-11T19:35:48.630Z,29.43
2018-05-11T19:38:16.967Z,29.70
2018-05-11T19:40:44.561Z,28.30
2018-05-11T19:43:12.177Z,28.67
2018-05-11T19:45:39.769Z,30.40
2018-05-11T19:48:07.371Z,30.10
2018-05-11T19:50:35.771Z,28.97
2018-05-11T19:53:03.366Z,28.30
2018-05-11T19:55:30.936Z,30.13
2018-05-11T19:57:58.558Z,28.70
2018-05-11T20:00:26.204Z,28.43
2018-05-11T20:02:53.786Z,29.10
2018-05-11T20:05:21.370Z,29.90
2018-05-11T20:07:48.985Z,28.20
2018-05-11T20:10:16.558Z,31.47
2018-05-11T20:12:44.178Z,29.47
2018-05-11T20:15:11.760Z,30.97
2018-05-11T20:17:40.143Z,29.60
2018-05-11T20:20:08.499Z,30.87
2018-05-11T20:22:36.118Z,29.93
2018-05-11T20:25:03.683Z,31.23
2018-05-11T20:27:31.274Z,28.30
2018-05-11T20:29:58.842Z,29.87
2018-05-11T20:32:26.462Z,29.10
2018-05-11T20:34:54.080Z,27.97
2018-05-11T20:37:22.434Z,28.97
2018-05-11T20:39:50.000Z,28.80
2018-05-11T20:42:17.599Z,27.53
2018-05-11T20:44:45.168Z,25.77
2018-05-11T20:47:12.767Z,27.97
2018-05-11T20:49:40.383Z,25.60
2018-05-11T20:52:07.947Z,25.17
2018-05-11T20:54:35.548Z,27.10
2018-05-11T20:57:03.135Z,25.83
2018-05-11T20:59:31.495Z,26.43
2018-05-11T21:01:59.090Z,25.27
2018-05-11T21:04:26.659Z,26.57
2018-05-11T21:06:55.015Z,27.20
2018-05-11T21:09:22.613Z,27.07
2018-05-11T21:11:50.947Z,25.30
2018-05-11T21:14:18.538Z,29.60
2018-05-11T21:16:46.971Z,28.23
2018-05-11T21:19:14.626Z,27.30
2018-05-11T21:21:42.195Z,29.00
2018-05-11T21:24:09.786Z,28.93
2018-05-11T21:26:37.349Z,27.43
2018-05-11T21:29:04.938Z,27.00
2018-05-11T21:31:33.322Z,26.40
2018-05-11T21:34:00.910Z,26.40
2018-05-11T21:36:28.518Z,26.53
2018-05-11T21:38:56.902Z,27.00
2018-05-11T21:41:25.259Z,26.70
2018-05-11T21:43:52.943Z,25.00
2018-05-11T21:46:21.297Z,27.20
2018-05-11T21:48:48.915Z,26.33
2018-05-11T21:51:16.530Z,24.43
2018-05-11T21:53:44.888Z,26.90
2018-05-11T21:56:12.485Z,26.30
2018-05-11T21:58:40.846Z,25.87
2018-05-11T22:01:09.207Z,26.43
2018-05-11T22:03:36.798Z,26.63
2018-05-11T22:06:05.182Z,27.50
2018-05-11T22:08:33.554Z,27.00
2018-05-11T22:11:01.883Z,27.30
2018-05-11T22:13:29.501Z,26.40
2018-05-11T22:15:57.123Z,27.30
2018-05-11T22:18:24.709Z,27.13
2018-05-11T22:20:53.064Z,27.60
2018-05-11T22:23:20.653Z,26.40
2018-05-11T22:25:49.019Z,25.80
2018-05-11T22:28:16.643Z,25.60
2018-05-11T22:30:44.243Z,25.50
2018-05-11T22:33:11.874Z,25.90
2018-05-11T22:35:39.463Z,25.40
2018-05-11T22:38:07.020Z,26.87
2018-05-11T22:40:34.630Z,26.87
2018-05-11T22:43:02.228Z,24.40
2018-05-11T22:45:29.788Z,24.73
2018-05-11T22:47:57.387Z,25.63
2018-05-11T22:50:25.750Z,25.90
2018-05-11T22:52:53.378Z,26.23
2018-05-11T22:55:20.970Z,27.93
2018-05-11T22:57:48.590Z,27.60
2018-05-11T23:00:16.927Z,25.50
2018-05-11T23:02:45.320Z,26.90
2018-05-11T23:05:12.907Z,27.90
2018-05-11T23:07:40.503Z,27.27
2018-05-11T23:10:08.147Z,28.93
2018-05-11T23:12:35.706Z,29.20
2018-05-11T23:15:03.322Z,31.53
2018-05-11T23:17:31.673Z,30.60
2018-05-11T23:19:59.261Z,30.83
2018-05-11T23:22:27.591Z,31.97
2018-05-11T23:24:55.226Z,31.90
2018-05-11T23:27:22.818Z,31.80
2018-05-11T23:29:50.407Z,30.00
2018-05-11T23:32:18.757Z,29.87
2018-05-11T23:34:46.350Z,29.50
2018-05-11T23:37:14.734Z,30.70
2018-05-11T23:39:43.062Z,31.33
2018-05-11T23:42:10.655Z,28.90
2018-05-11T23:44:38.214Z,30.30
2018-05-11T23:47:05.806Z,31.00
2018-05-11T23:49:33.369Z,29.73
2018-05-11T23:52:00.974Z,29.20
2018-05-11T23:54:28.566Z,29.37
2018-05-11T23:56:56.167Z,29.20
2018-05-11T23:59:23.758Z,29.07
